Time;durP1;ratioP1;P1;durP2;ratioP2;P2;SDS_P1;SDS_P2;PMS_P1;PMS_P2;Temp;Humidity;BMP_temperature;BMP_pressure;BME280_temperature;BME280_humidity;BME280_pressure;Samples;Min_cycle;Max_cycle;Signal;HPM_P1;HPM_P2
2021/07/27 12:58:44;;;;;;;16.70;10.40;;;;;;;22.16;69.91;99163.27;1869440;73;22719;-72
2021/07/27 13:01:11;;;;;;;14.83;10.70;;;;;;;20.86;66.06;99149.94;1795628;77;21035;-73
2021/07/27 13:03:38;;;;;;;17.00;12.20;;;;;;;20.12;69.10;99143.84;1819410;77;21030;-73
2021/07/27 13:06:04;;;;;;;15.98;12.18;;;;;;;19.84;70.04;99142.50;1809945;77;21157;-75
2021/07/27 13:08:34;;;;;;;15.15;11.43;;;;;;;19.70;66.57;99139.00;1812765;77;20958;-74
2021/07/27 13:11:01;;;;;;;20.72;12.70;;;;;;;19.71;69.68;99148.61;1810257;78;20981;-76
2021/07/27 13:13:27;;;;;;;;;;;;;;;19.78;67.41;99155.02;1822319;77;21219;-75
2021/07/27 13:15:57;;;;;;;14.68;12.00;;;;;;;19.86;70.93;99150.31;1809126;77;20538;-75
2021/07/27 13:18:24;;;;;;;15.25;12.65;;;;;;;19.92;68.92;99147.58;1812228;78;20955;-74
2021/07/27 13:20:51;;;;;;;16.32;12.13;;;;;;;19.98;68.15;99145.66;1818455;76;20946;-74
2021/07/27 13:23:18;;;;;;;15.40;11.33;;;;;;;20.08;68.49;99142.45;1811270;78;20914;-74
2021/07/27 13:25:44;;;;;;;12.60;10.70;;;;;;;20.13;70.02;99148.16;1813524;77;21021;-75
2021/07/27 13:28:11;;;;;;;13.85;11.35;;;;;;;20.32;69.79;99159.97;1813094;78;21097;-75
2021/07/27 13:30:40;;;;;;;15.80;11.65;;;;;;;20.48;69.83;99175.73;1805005;78;20954;-75
2021/07/27 13:33:06;;;;;;;14.38;11.40;;;;;;;20.53;72.39;99196.05;1802192;78;21595;-75
2021/07/27 13:35:33;;;;;;;15.83;12.98;;;;;;;20.57;72.10;99193.44;1806805;77;20921;-75
2021/07/27 13:38:00;;;;;;;17.52;15.15;;;;;;;20.90;71.48;99180.51;1802610;77;20969;-77
2021/07/27 13:40:27;;;;;;;17.17;15.10;;;;;;;21.33;70.73;99164.26;1809187;77;22008;-75
2021/07/27 13:42:54;;;;;;;13.03;10.55;;;;;;;21.71;70.74;99155.59;1807891;77;21548;-75
2021/07/27 13:45:21;;;;;;;11.20;9.83;;;;;;;21.78;69.99;99154.78;1768143;78;21583;-74
2021/07/27 13:47:48;;;;;;;15.55;10.95;;;;;;;22.04;70.48;99158.74;1810252;77;21006;-73
2021/07/27 13:50:14;;;;;;;14.65;10.28;;;;;;;22.29;70.48;99158.84;1810080;77;20900;-72
2021/07/27 13:52:41;;;;;;;16.05;14.28;;;;;;;22.56;70.46;99154.60;1808222;77;21396;-72
2021/07/27 13:55:09;;;;;;;16.55;14.93;;;;;;;22.87;71.00;99164.63;1805831;77;21003;-73
2021/07/27 13:57:39;;;;;;;16.35;14.33;;;;;;;23.14;70.98;99166.69;1812208;77;20919;-74
2021/07/27 14:00:12;;;;;;;19.50;17.50;;;;;;;23.32;71.13;99160.66;1818905;77;20953;-74
2021/07/27 14:02:37;;;;;;;21.70;17.95;;;;;;;23.40;71.37;99149.17;1808290;77;20935;-74
2021/07/27 14:05:05;;;;;;;19.80;17.67;;;;;;;23.39;71.62;99151.02;1784853;78;21889;-73
2021/07/27 14:07:33;;;;;;;24.27;18.57;;;;;;;23.41;71.65;99151.69;1813318;77;21079;-73
2021/07/27 14:10:00;;;;;;;21.17;18.85;;;;;;;23.44;71.94;99151.34;1816346;77;20942;-73
2021/07/27 14:12:26;;;;;;;21.62;19.48;;;;;;;23.39;72.09;99151.02;1815534;77;20970;-73
2021/07/27 14:14:53;;;;;;;22.67;20.23;;;;;;;23.28;72.49;99146.03;1761305;78;20978;-73
2021/07/27 14:17:19;;;;;;;20.72;18.55;;;;;;;23.21;72.85;99150.35;1803850;76;22377;-73
2021/07/27 14:19:46;;;;;;;21.87;19.60;;;;;;;23.04;73.33;99179.31;1804143;77;21552;-73
2021/07/27 14:22:14;;;;;;;21.87;19.60;;;;;;;22.92;73.63;99193.42;1813588;76;21045;-73
2021/07/27 14:24:42;;;;;;;24.47;19.50;;;;;;;22.90;73.86;99173.61;1813515;77;20962;-72
2021/07/27 14:27:11;;;;;;;21.35;19.32;;;;;;;22.89;73.84;99164.48;1815544;76;20978;-74
2021/07/27 14:29:38;;;;;;;22.35;19.73;;;;;;;22.78;74.16;99154.98;1815170;76;21084;-74
2021/07/27 14:32:06;;;;;;;22.37;20.10;;;;;;;22.73;74.35;99142.66;1820790;76;21093;-76
2021/07/27 14:34:33;;;;;;;22.00;19.67;;;;;;;22.60;74.57;99128.48;1825535;76;20981;-74
2021/07/27 14:37:06;;;;;;;21.15;19.12;;;;;;;22.50;74.87;99141.95;1825619;76;21017;-74
2021/07/27 14:39:34;;;;;;;21.68;19.48;;;;;;;22.38;74.88;99166.34;1828106;76;20905;-75
2021/07/27 14:42:01;;;;;;;23.15;20.62;;;;;;;22.18;75.43;99193.70;1807029;76;21122;-73
2021/07/27 14:44:27;;;;;;;25.72;22.35;;;;;;;22.13;75.86;99210.95;1811958;75;21032;-73
2021/07/27 14:46:55;;;;;;;21.50;18.02;;;;;;;22.06;76.20;99216.55;1808459;77;20948;-74
2021/07/27 14:49:22;;;;;;;21.15;19.10;;;;;;;21.98;76.06;99214.34;1811772;77;21018;-74
2021/07/27 14:51:50;;;;;;;23.57;21.37;;;;;;;21.83;76.27;99207.46;1807466;77;21057;-75
2021/07/27 14:54:16;;;;;;;25.17;22.50;;;;;;;21.74;76.55;99219.04;1806627;76;21896;-75
2021/07/27 14:56:44;;;;;;;33.13;24.47;;;;;;;21.69;77.04;99230.13;1792268;77;20923;-75
2021/07/27 14:59:11;;;;;;;17.73;11.53;;;;;;;21.73;77.32;99258.53;1801341;77;21022;-75
2021/07/27 15:01:37;;;;;;;11.65;9.03;;;;;;;21.54;76.26;99275.02;1806827;77;20955;-75
2021/07/27 15:04:10;;;;;;;6.87;6.17;;;;;;;21.07;76.20;99275.21;1814513;77;20990;-75
2021/07/27 15:06:37;;;;;;;7.30;5.45;;;;;;;20.56;76.35;99277.47;1807401;77;21139;-77
2021/07/27 15:09:05;;;;;;;8.48;5.15;;;;;;;20.09;77.10;99274.00;1801825;77;20947;-75
2021/07/27 15:11:32;;;;;;;6.95;5.58;;;;;;;19.63;77.79;99251.75;1806599;78;21533;-74
2021/07/27 15:13:59;;;;;;;8.00;6.87;;;;;;;19.29;79.87;99235.48;1806733;77;21495;-75
2021/07/27 15:16:25;;;;;;;6.72;6.12;;;;;;;19.09;78.98;99232.00;1807573;77;20959;-75
2021/07/27 15:18:52;;;;;;;6.05;5.40;;;;;;;18.95;79.05;99234.08;1810572;77;21715;-74
2021/07/27 15:21:18;;;;;;;6.35;5.33;;;;;;;18.79;80.82;99239.06;1810004;78;20977;-74
2021/07/27 15:23:47;;;;;;;7.08;5.55;;;;;;;18.63;80.00;99230.81;1813835;77;20983;-74
2021/07/27 15:26:14;;;;;;;6.87;5.72;;;;;;;18.46;79.52;99214.63;1812615;77;20975;-75
2021/07/27 15:28:41;;;;;;;8.08;5.37;;;;;;;18.36;79.35;99207.14;1810841;77;21616;-75
2021/07/27 15:33:30;;;;;;;8.23;4.75;;;;;;;18.22;79.90;99233.94;1864449;74;24986;-74
2021/07/27 15:35:58;;;;;;;8.33;5.08;;;;;;;18.07;79.76;99232.97;1820614;77;20956;-74
2021/07/27 15:38:25;;;;;;;6.12;5.25;;;;;;;18.05;79.79;99228.30;1824083;77;21006;-75
2021/07/27 15:40:52;;;;;;;6.03;5.40;;;;;;;18.02;79.82;99227.25;1819964;77;22250;-74
2021/07/27 15:43:18;;;;;;;5.83;4.83;;;;;;;18.00;79.87;99231.81;1821315;77;26616;-73
2021/07/27 15:45:46;;;;;;;7.17;4.97;;;;;;;17.98;80.04;99231.14;1827836;77;21542;-76
2021/07/27 15:48:12;;;;;;;9.63;5.83;;;;;;;17.98;80.10;99224.98;1822011;77;21546;-73
2021/07/27 15:50:39;;;;;;;5.05;4.58;;;;;;;18.05;79.72;99240.68;1824903;77;21068;-76
2021/07/27 15:53:06;;;;;;;7.08;5.78;;;;;;;18.05;79.72;99240.68;1821951;77;20997;-74
2021/07/27 15:55:32;;;;;;;5.40;4.90;;;;;;;18.10;79.84;99238.48;1827372;77;21535;-74
2021/07/27 15:57:59;;;;;;;7.72;4.37;;;;;;;18.16;79.74;99243.72;1819503;77;21027;-73
2021/07/27 16:00:26;;;;;;;4.50;3.00;;;;;;;18.22;79.78;99233.94;1826324;77;20976;-74
2021/07/27 16:02:53;;;;;;;5.85;3.85;;;;;;;18.25;79.52;99223.92;1795350;77;21925;-74
2021/07/27 16:05:20;;;;;;;6.03;4.80;;;;;;;18.25;79.62;99213.36;1820080;77;21507;-75
2021/07/27 16:07:46;;;;;;;4.95;4.50;;;;;;;18.27;79.80;99201.34;1822104;77;21758;-75
2021/07/27 16:10:14;;;;;;;8.18;5.45;;;;;;;18.18;79.67;99175.73;1818829;77;21020;-73
2021/07/27 16:12:41;;;;;;;7.80;5.80;;;;;;;18.34;79.77;99186.61;1821876;77;21054;-75
2021/07/27 16:15:09;;;;;;;10.03;5.70;;;;;;;18.54;80.23;99183.06;1819946;77;21860;-75
2021/07/27 16:17:35;;;;;;;6.62;5.10;;;;;;;18.82;80.37;99175.80;1829497;77;20904;-75
2021/07/27 16:20:07;;;;;;;5.37;4.97;;;;;;;19.08;80.30;99170.31;1824552;77;21041;-74
2021/07/27 16:22:33;;;;;;;7.65;5.33;;;;;;;19.36;80.21;99173.08;1821266;77;20889;-74
2021/07/27 16:25:00;;;;;;;7.00;5.65;;;;;;;19.73;80.39;99172.32;1828036;77;20972;-73
2021/07/27 16:27:27;;;;;;;6.65;5.45;;;;;;;20.06;80.38;99155.04;1824015;77;21963;-74
2021/07/27 16:29:53;;;;;;;5.92;5.37;;;;;;;20.44;80.44;99151.81;1824360;77;21061;-74
2021/07/27 16:32:21;;;;;;;7.10;4.87;;;;;;;20.73;79.96;99156.47;1821173;77;20984;-73
2021/07/27 16:34:54;;;;;;;6.92;5.50;;;;;;;21.02;80.20;99152.73;1823957;77;21035;-74
2021/07/27 16:37:22;;;;;;;6.55;5.90;;;;;;;21.29;79.97;99154.45;1822996;77;21632;-74
2021/07/27 16:39:48;;;;;;;17.52;8.00;;;;;;;21.57;80.23;99159.16;1818514;77;21604;-74
2021/07/27 16:42:15;;;;;;;9.03;5.60;;;;;;;21.98;80.56;99178.46;1789178;77;20999;-75
2021/07/27 16:44:41;;;;;;;5.08;4.00;;;;;;;22.28;80.06;99193.09;1819234;77;20886;-72
2021/07/27 16:47:10;;;;;;;7.45;4.53;;;;;;;22.53;79.97;99191.34;1818697;77;20999;-74
2021/07/27 16:49:38;;;;;;;6.78;4.65;;;;;;;22.84;80.19;99180.10;1791688;77;21087;-74
2021/07/27 16:52:06;;;;;;;5.53;4.30;;;;;;;23.09;80.09;99180.98;1820792;77;21458;-72
2021/07/27 16:54:33;;;;;;;6.80;3.42;;;;;;;23.33;79.97;99169.00;1822648;77;20975;-73
2021/07/27 16:56:59;;;;;;;5.95;3.60;;;;;;;23.50;79.89;99176.48;1820816;77;20992;-74
2021/07/27 16:59:26;;;;;;;6.58;4.58;;;;;;;23.63;79.75;99179.94;1822464;77;21049;-74
2021/07/27 17:01:53;;;;;;;5.37;4.00;;;;;;;23.61;79.73;99177.94;1822641;77;21056;-74
2021/07/27 17:04:19;;;;;;;6.30;3.40;;;;;;;23.66;79.66;99167.60;1820153;77;21160;-74
2021/07/27 17:06:46;;;;;;;3.65;3.35;;;;;;;23.65;79.71;99171.28;1819590;77;21011;-74
2021/07/27 17:09:13;;;;;;;10.23;3.40;;;;;;;23.55;79.64;99175.95;1821368;77;21486;-74
2021/07/27 17:11:39;;;;;;;5.30;3.20;;;;;;;23.44;79.33;99173.98;1822130;77;20953;-73
2021/07/27 17:14:06;;;;;;;5.37;3.85;;;;;;;23.26;79.52;99171.99;1823260;77;21498;-74
2021/07/27 17:16:33;;;;;;;3.92;3.52;;;;;;;23.21;79.62;99176.98;1817168;77;21476;-75
2021/07/27 17:18:59;;;;;;;4.10;3.33;;;;;;;23.27;80.04;99172.31;1815419;77;21157;-75
2021/07/27 17:21:26;;;;;;;3.60;3.30;;;;;;;23.24;80.10;99173.98;1818001;77;21693;-73
2021/07/27 17:23:53;;;;;;;3.95;3.40;;;;;;;23.27;80.27;99176.31;1818414;77;20948;-73
2021/07/27 17:26:19;;;;;;;;;;;;;;;23.26;79.96;99173.83;1817657;77;20929;-74
2021/07/27 17:28:50;;;;;;;4.60;2.80;;;;;;;23.18;79.81;99175.98;1814746;77;23829;-74
2021/07/27 17:31:15;;;;;;;3.52;3.22;;;;;;;23.09;79.71;99179.16;1816252;77;21850;-74
2021/07/27 17:33:41;;;;;;;3.65;3.35;;;;;;;22.98;79.95;99178.98;1816231;77;21040;-74
2021/07/27 17:36:08;;;;;;;4.03;3.62;;;;;;;22.94;80.22;99170.97;1817582;77;21168;-74
2021/07/27 17:38:35;;;;;;;3.95;3.52;;;;;;;22.81;79.98;99167.95;1816742;77;21527;-73
2021/07/27 17:41:01;;;;;;;5.12;3.60;;;;;;;22.75;80.28;99173.94;1814883;77;21480;-73
2021/07/27 17:43:28;;;;;;;5.15;3.42;;;;;;;22.65;80.25;99173.24;1816712;77;20971;-74
2021/07/27 17:45:54;;;;;;;4.62;4.00;;;;;;;22.60;80.61;99175.05;1816358;77;20944;-73
2021/07/27 17:48:21;;;;;;;7.22;4.28;;;;;;;22.64;80.95;99171.59;1821316;77;21578;-74
2021/07/27 17:50:48;;;;;;;4.70;3.83;;;;;;;22.69;81.00;99179.92;1815932;77;20935;-74
2021/07/27 17:53:14;;;;;;;4.35;3.52;;;;;;;22.66;80.99;99174.89;1819149;77;21089;-74
2021/07/27 17:55:41;;;;;;;4.50;3.67;;;;;;;22.56;80.52;99170.56;1817369;77;21003;-73
2021/07/27 17:58:07;;;;;;;4.00;3.60;;;;;;;22.27;80.09;99169.66;1816527;77;21058;-71
2021/07/27 18:00:34;;;;;;;5.33;3.90;;;;;;;21.98;80.55;99169.98;1815602;77;20992;-72
2021/07/27 18:03:01;;;;;;;5.00;3.90;;;;;;;21.91;81.25;99172.96;1818919;77;21014;-73
2021/07/27 18:05:28;;;;;;;6.12;3.87;;;;;;;21.83;80.87;99175.57;1817301;77;21592;-72
2021/07/27 18:07:54;;;;;;;4.33;3.92;;;;;;;21.60;81.15;99173.45;1814469;77;20992;-73
2021/07/27 18:10:21;;;;;;;7.37;4.12;;;;;;;21.53;81.18;99176.88;1816645;77;20976;-74
2021/07/27 18:12:47;;;;;;;5.65;4.53;;;;;;;21.40;81.15;99183.94;1820799;77;21490;-74
2021/07/27 18:15:15;;;;;;;5.62;4.35;;;;;;;21.32;81.65;99185.17;1820712;77;20992;-73
2021/07/27 18:17:42;;;;;;;5.05;4.53;;;;;;;21.34;81.95;99191.14;1818704;77;21929;-73
2021/07/27 18:20:10;;;;;;;8.53;5.22;;;;;;;21.33;81.95;99195.63;1820560;77;21651;-73
2021/07/27 18:22:36;;;;;;;5.85;4.45;;;;;;;21.31;82.08;99199.42;1822611;77;20944;-73
2021/07/27 18:25:05;;;;;;;6.28;4.35;;;;;;;21.19;81.78;99204.97;1821321;77;21569;-72
2021/07/27 18:27:31;;;;;;;5.37;4.58;;;;;;;21.05;81.84;99210.82;1822567;77;21550;-73
2021/07/27 18:29:58;;;;;;;5.87;4.33;;;;;;;21.00;82.04;99215.74;1819662;77;21094;-73
2021/07/27 18:32:25;;;;;;;4.50;4.08;;;;;;;20.94;81.97;99212.38;1821116;77;21522;-73
2021/07/27 18:34:51;;;;;;;8.35;4.85;;;;;;;20.75;81.92;99200.94;1819669;77;21015;-73
2021/07/27 18:37:18;;;;;;;8.20;4.83;;;;;;;20.70;82.02;99220.44;1821036;77;21031;-73
2021/07/27 18:39:45;;;;;;;5.72;5.00;;;;;;;20.63;82.11;99229.96;1823370;77;21462;-73
2021/07/27 18:42:12;;;;;;;;;;;;;;;20.58;82.44;99229.56;1822490;77;21582;-73
2021/07/27 18:44:38;;;;;;;9.38;5.25;;;;;;;20.52;82.23;99232.79;1820246;77;20214;-73
2021/07/27 18:47:06;;;;;;;7.15;5.37;;;;;;;20.49;82.57;99223.80;1824973;77;21003;-72
2021/07/27 18:49:33;;;;;;;7.30;5.37;;;;;;;20.47;82.60;99224.44;1818366;77;20976;-72
2021/07/27 18:52:00;;;;;;;10.43;5.40;;;;;;;20.40;82.53;99220.72;1823006;77;20983;-73
2021/07/27 18:54:30;;;;;;;8.00;6.58;;;;;;;20.34;82.80;99220.33;1821921;77;21097;-73
2021/07/27 18:56:55;;;;;;;7.95;7.12;;;;;;;20.31;82.94;99215.31;1819333;77;20995;-73
2021/07/27 18:59:21;;;;;;;10.35;7.83;;;;;;;20.28;83.01;99215.61;1821501;77;20953;-73
2021/07/27 19:01:49;;;;;;;9.40;7.37;;;;;;;20.19;83.11;99211.17;1817806;77;20944;-74
2021/07/27 19:04:16;;;;;;;7.62;6.72;;;;;;;20.16;83.24;99216.77;1821048;77;20964;-74
2021/07/27 19:06:42;;;;;;;7.62;6.15;;;;;;;20.11;83.20;99211.09;1820338;77;21535;-73
2021/07/27 19:09:09;;;;;;;11.00;8.48;;;;;;;19.88;82.79;99211.92;1819765;77;21015;-73
2021/07/27 19:11:36;;;;;;;9.70;6.10;;;;;;;19.78;83.29;99218.59;1822536;77;20972;-73
2021/07/27 19:14:03;;;;;;;8.78;5.97;;;;;;;19.70;83.42;99214.98;1819206;77;21499;-74
2021/07/27 19:16:30;;;;;;;6.62;5.87;;;;;;;19.58;83.43;99217.77;1821952;77;21502;-73
2021/07/27 19:18:57;;;;;;;6.80;6.10;;;;;;;19.44;83.49;99219.03;1819214;77;21414;-72
2021/07/27 19:21:23;;;;;;;7.60;5.58;;;;;;;19.29;83.42;99217.78;1822439;77;20945;-73
2021/07/27 19:23:50;;;;;;;9.98;6.53;;;;;;;19.19;83.77;99222.27;1822298;77;20976;-73
2021/07/27 19:26:18;;;;;;;8.00;6.67;;;;;;;19.15;83.84;99222.17;1826101;77;21576;-73
2021/07/27 19:28:45;;;;;;;11.05;7.30;;;;;;;19.04;83.95;99213.88;1823434;77;20984;-72
2021/07/27 19:31:12;;;;;;;11.57;7.10;;;;;;;18.96;83.98;99217.25;1824324;77;21688;-73
2021/07/27 19:33:42;;;;;;;8.05;6.97;;;;;;;18.88;84.09;99215.77;1824816;77;21042;-72
2021/07/27 19:36:07;;;;;;;10.80;6.83;;;;;;;18.85;84.30;99222.66;1817437;77;20973;-73
2021/07/27 19:38:34;;;;;;;11.93;7.00;;;;;;;18.79;84.23;99220.55;1822257;77;20900;-72
2021/07/27 19:41:03;;;;;;;9.83;7.22;;;;;;;18.75;84.43;99224.45;1823933;77;20984;-71
2021/07/27 19:48:48;;;;;;;13.70;8.43;;;;;;;18.67;84.75;99244.09;1816946;77;21087;-73
2021/07/27 19:51:15;;;;;;;;;;;;;;;18.67;84.78;99240.95;1824061;77;21021;-71
2021/07/27 19:53:41;;;;;;;12.68;7.95;;;;;;;18.64;84.85;99248.33;1823960;77;20490;-73
2021/07/27 19:56:09;;;;;;;13.90;6.92;;;;;;;18.58;84.74;99255.48;1822206;77;21167;-73
2021/07/27 19:58:36;;;;;;;13.45;7.28;;;;;;;18.49;84.67;99252.68;1822254;77;21577;-73
2021/07/27 20:01:04;;;;;;;13.15;7.90;;;;;;;18.45;84.86;99255.22;1821520;77;20909;-72
2021/07/27 20:03:31;;;;;;;14.18;7.67;;;;;;;18.46;85.08;99247.66;1824058;77;21043;-73
2021/07/27 20:05:58;;;;;;;;;;;;;;;18.50;85.18;99250.38;1821627;77;20917;-72
2021/07/27 20:08:24;;;;;;;11.77;8.00;;;;;;;18.52;85.18;99245.80;1823465;77;21539;-73
2021/07/27 20:10:51;;;;;;;18.23;9.47;;;;;;;18.47;85.00;99257.25;1819225;77;21296;-73
2021/07/27 20:13:17;;;;;;;13.08;8.45;;;;;;;18.41;84.99;99256.48;1824108;77;20971;-72
2021/07/27 20:15:44;;;;;;;11.22;8.08;;;;;;;18.33;85.12;99258.95;1819624;77;20976;-71
2021/07/27 20:18:11;;;;;;;17.65;8.00;;;;;;;18.30;85.29;99256.58;1816457;77;21051;-73
2021/07/27 20:20:37;;;;;;;13.00;7.30;;;;;;;18.24;85.34;99252.66;1815256;77;22358;-72
2021/07/27 20:23:05;;;;;;;13.32;6.90;;;;;;;18.16;85.23;99251.65;1823647;77;21533;-73
2021/07/27 20:25:32;;;;;;;10.28;6.78;;;;;;;18.07;85.32;99254.11;1818459;77;21047;-72
2021/07/27 20:27:58;;;;;;;27.17;8.08;;;;;;;18.07;85.58;99249.31;1820364;77;21083;-73
2021/07/27 20:30:25;;;;;;;15.25;8.98;;;;;;;18.08;85.64;99244.38;1818037;77;21487;-72
2021/07/27 20:32:52;;;;;;;11.05;7.47;;;;;;;18.06;85.65;99251.12;1815422;75;21084;-72
2021/07/27 20:35:19;;;;;;;10.55;7.47;;;;;;;18.02;85.58;99266.88;1808089;77;21064;-73
2021/07/27 20:37:46;;;;;;;10.28;7.37;;;;;;;17.99;85.56;99272.42;1808656;77;21012;-73
2021/07/27 20:40:13;;;;;;;10.10;7.62;;;;;;;17.93;85.57;99267.66;1806698;77;21005;-71
2021/07/27 20:42:44;;;;;;;11.00;7.62;;;;;;;17.87;85.67;99265.55;1809207;77;20996;-73
2021/07/27 20:45:12;;;;;;;21.37;9.58;;;;;;;17.87;85.86;99266.87;1812213;77;22358;-73
2021/07/27 20:47:39;;;;;;;15.85;7.53;;;;;;;17.89;85.85;99268.87;1811173;77;20930;-73
2021/07/27 20:50:07;;;;;;;14.70;6.42;;;;;;;17.90;85.98;99262.64;1807989;77;22301;-73
2021/07/27 20:52:35;;;;;;;10.50;7.72;;;;;;;17.92;85.98;99257.22;1807040;77;20992;-73
2021/07/27 20:55:03;;;;;;;10.43;7.28;;;;;;;17.92;85.98;99258.05;1808848;77;20987;-73
2021/07/27 20:57:29;;;;;;;18.35;8.25;;;;;;;17.92;86.23;99256.72;1810624;77;21110;-73
2021/07/27 20:59:56;;;;;;;13.35;7.92;;;;;;;17.95;86.17;99255.14;1813505;77;21059;-73
2021/07/27 21:02:22;;;;;;;11.22;8.65;;;;;;;17.97;86.23;99257.17;1814017;77;21511;-73
2021/07/27 21:04:49;;;;;;;14.47;8.98;;;;;;;18.00;86.33;99260.88;1806811;77;21074;-73
2021/07/27 21:07:16;;;;;;;13.53;9.30;;;;;;;18.01;86.32;99255.96;1807709;77;21011;-73
2021/07/27 21:09:42;;;;;;;15.15;10.53;;;;;;;17.99;86.26;99259.21;1807659;77;22011;-73
2021/07/27 21:12:09;;;;;;;12.30;10.10;;;;;;;17.96;86.24;99262.12;1808681;77;21007;-72
2021/07/27 21:14:36;;;;;;;13.62;10.82;;;;;;;17.94;86.24;99270.64;1817324;77;21609;-72
2021/07/27 21:17:03;;;;;;;;;;;;;;;17.88;86.19;99267.21;1792995;78;21675;-73
2021/07/27 21:19:30;;;;;;;14.80;10.53;;;;;;;17.83;86.29;99270.72;1813358;77;20524;-73
2021/07/27 21:21:56;;;;;;;14.93;10.72;;;;;;;17.76;86.20;99265.59;1814117;77;21067;-72
2021/07/27 21:24:23;;;;;;;13.93;10.65;;;;;;;17.68;86.36;99264.41;1813491;77;20945;-72
2021/07/27 21:26:50;;;;;;;20.03;11.83;;;;;;;17.68;86.47;99264.41;1812260;78;21004;-73
2021/07/27 21:29:17;;;;;;;21.15;11.30;;;;;;;17.64;86.34;99263.02;1811468;78;21246;-72
2021/07/27 21:31:44;;;;;;;17.42;11.48;;;;;;;17.61;86.40;99265.88;1812595;77;22947;-72
2021/07/27 21:34:15;;;;;;;17.02;11.65;;;;;;;17.57;86.55;99265.80;1808112;77;21118;-73
2021/07/27 21:36:41;;;;;;;18.15;12.18;;;;;;;17.56;86.65;99272.52;1813443;78;21035;-73
2021/07/27 21:39:08;;;;;;;17.67;10.95;;;;;;;17.52;86.62;99266.66;1812946;77;20914;-73
2021/07/27 21:41:35;;;;;;;15.50;11.55;;;;;;;17.51;86.64;99272.91;1807715;77;21031;-72
2021/07/27 21:44:02;;;;;;;17.87;12.80;;;;;;;17.49;86.65;99276.64;1811579;77;21546;-72
2021/07/27 21:46:28;;;;;;;16.23;12.53;;;;;;;17.48;86.79;99270.53;1818167;77;21109;-72
2021/07/27 21:48:56;;;;;;;17.98;12.45;;;;;;;17.42;86.65;99278.47;1812759;77;20988;-72
2021/07/27 21:51:23;;;;;;;15.28;11.08;;;;;;;17.35;86.61;99285.70;1811848;77;21044;-73
2021/07/27 21:53:49;;;;;;;13.85;9.65;;;;;;;17.26;86.67;99280.70;1812816;77;20901;-73
2021/07/27 21:56:16;;;;;;;14.37;10.47;;;;;;;17.19;86.71;99280.83;1811785;77;21011;-72
2021/07/27 21:58:42;;;;;;;13.32;10.85;;;;;;;17.05;87.10;99263.97;1810583;77;22071;-72
2021/07/27 22:01:09;;;;;;;18.35;9.68;;;;;;;17.08;86.92;99275.11;1815154;77;20978;-72
2021/07/27 22:03:36;;;;;;;15.40;11.37;;;;;;;17.06;87.02;99274.41;1809863;77;21051;-72
2021/07/27 22:06:03;;;;;;;16.23;10.23;;;;;;;17.04;87.11;99273.69;1814716;78;20976;-73
2021/07/27 22:08:29;;;;;;;13.78;10.00;;;;;;;17.04;87.16;99272.38;1815307;77;20991;-73
2021/07/27 22:10:56;;;;;;;18.77;10.83;;;;;;;17.04;87.12;99269.73;1812708;77;21921;-73
2021/07/27 22:13:23;;;;;;;12.80;10.13;;;;;;;17.01;87.16;99275.27;1813579;77;21473;-72
2021/07/27 22:15:49;;;;;;;15.25;10.48;;;;;;;17.00;87.27;99274.92;1809095;78;21503;-73
2021/07/27 22:18:16;;;;;;;14.13;10.93;;;;;;;17.01;87.33;99271.30;1814414;78;21059;-73
2021/07/27 22:20:43;;;;;;;14.83;11.28;;;;;;;16.99;87.20;99266.63;1810670;77;20988;-72
2021/07/27 22:23:09;;;;;;;15.10;10.98;;;;;;;16.96;87.18;99266.88;1811326;77;21105;-73
2021/07/27 22:25:36;;;;;;;13.73;10.93;;;;;;;16.94;87.28;99268.80;1815554;78;20964;-73
2021/07/27 22:28:03;;;;;;;12.95;10.98;;;;;;;16.92;87.43;99266.30;1812628;78;20892;-73
2021/07/27 22:30:30;;;;;;;16.73;11.70;;;;;;;16.96;87.58;99264.24;1808419;77;20944;-73
2021/07/27 22:32:56;;;;;;;13.20;11.15;;;;;;;16.97;87.58;99265.91;1812316;78;21018;-74
2021/07/27 22:35:25;;;;;;;20.10;10.33;;;;;;;16.95;87.46;99266.53;1818064;77;21487;-73
2021/07/27 22:37:51;;;;;;;15.15;11.10;;;;;;;16.81;87.37;99252.31;1819831;77;20936;-73
2021/07/27 22:40:18;;;;;;;14.90;9.58;;;;;;;16.93;87.61;99273.23;1823240;77;20955;-72
2021/07/27 22:42:45;;;;;;;12.95;9.50;;;;;;;16.93;87.46;99269.77;1820731;77;20945;-73
2021/07/27 22:45:11;;;;;;;13.80;9.28;;;;;;;16.83;87.33;99260.91;1822143;77;21074;-73
2021/07/27 22:47:38;;;;;;;9.83;7.42;;;;;;;16.75;87.38;99264.98;1821754;77;21228;-72
2021/07/27 22:50:06;;;;;;;12.80;7.50;;;;;;;16.66;87.27;99270.97;1821451;77;20893;-72
2021/07/27 22:52:33;;;;;;;9.80;6.42;;;;;;;16.56;87.25;99273.52;1818874;77;21352;-73
2021/07/27 22:55:01;;;;;;;11.57;6.77;;;;;;;16.50;87.33;99271.86;1823602;77;20925;-72
2021/07/27 22:57:28;;;;;;;8.08;6.60;;;;;;;16.45;87.42;99272.69;1822681;77;21269;-72
2021/07/27 22:59:54;;;;;;;11.18;7.80;;;;;;;16.41;87.46;99271.23;1816760;77;21468;-73
2021/07/27 23:02:21;;;;;;;9.20;7.40;;;;;;;16.32;87.43;99268.36;1815453;77;21535;-72
2021/07/27 23:04:48;;;;;;;9.90;6.80;;;;;;;16.27;87.59;99267.91;1822323;77;20984;-73
2021/07/27 23:07:14;;;;;;;14.45;7.97;;;;;;;16.14;87.73;99255.33;1816380;77;21933;-72
2021/07/27 23:09:41;;;;;;;10.70;8.08;;;;;;;16.25;87.90;99282.98;1822214;77;21182;-72
2021/07/27 23:12:08;;;;;;;9.00;7.60;;;;;;;16.27;87.97;99275.81;1816509;77;21120;-71
2021/07/27 23:14:35;;;;;;;16.42;8.80;;;;;;;16.28;87.99;99280.11;1824951;77;21328;-72
2021/07/27 23:17:01;;;;;;;11.60;7.83;;;;;;;16.27;87.96;99288.98;1816064;77;21107;-72
2021/07/27 23:19:31;;;;;;;11.60;7.80;;;;;;;16.29;87.93;99287.05;1822293;77;20992;-72
2021/07/27 23:21:58;;;;;;;13.15;7.60;;;;;;;16.14;87.87;99260.59;1818481;77;20920;-72
2021/07/27 23:24:25;;;;;;;8.50;7.20;;;;;;;16.24;87.90;99286.56;1821651;77;21959;-72
2021/07/27 23:26:52;;;;;;;8.00;7.20;;;;;;;16.21;87.89;99288.12;1821184;77;21004;-72
2021/07/27 23:29:18;;;;;;;9.25;7.37;;;;;;;16.25;88.12;99285.63;1822656;77;21007;-72
2021/07/27 23:31:45;;;;;;;7.95;7.12;;;;;;;16.28;88.18;99280.11;1816650;77;21455;-72
2021/07/27 23:34:12;;;;;;;10.20;7.00;;;;;;;16.32;88.20;99278.91;1822214;77;21175;-72
2021/07/27 23:36:39;;;;;;;9.00;6.60;;;;;;;16.31;88.11;99282.50;1819184;77;22262;-72
2021/07/27 23:39:06;;;;;;;7.78;6.67;;;;;;;16.31;88.17;99282.50;1822662;77;20911;-72
2021/07/27 23:41:33;;;;;;;;;;;;;;;16.33;88.25;99272.70;1826157;77;20949;-73
2021/07/27 23:44:00;;;;;;;9.83;7.37;;;;;;;16.35;88.26;99269.92;1822201;77;20196;-72
2021/07/27 23:46:26;;;;;;;7.03;6.33;;;;;;;16.30;88.11;99262.89;1820380;77;21598;-72
2021/07/27 23:48:53;;;;;;;9.90;7.33;;;;;;;16.22;88.00;99256.06;1820392;77;21023;-72
2021/07/27 23:51:19;;;;;;;10.07;6.90;;;;;;;16.18;88.12;99255.44;1821654;77;20924;-72
2021/07/27 23:53:46;;;;;;;7.53;6.70;;;;;;;16.17;88.25;99260.36;1821328;77;21015;-72
2021/07/27 23:56:20;;;;;;;11.07;7.00;;;;;;;16.19;88.35;99257.13;1822631;77;20896;-72
2021/07/27 23:58:47;;;;;;;10.35;6.42;;;;;;;16.22;88.52;99264.80;1819959;77;20917;-73
